createdAt,value
2022-08-26T00:01:07.526Z,79.88
2022-08-26T00:04:04.630Z,80.20
2022-08-26T00:07:01.729Z,80.89
2022-08-26T00:09:59.502Z,80.93
2022-08-26T00:12:57.748Z,80.83
2022-08-26T00:15:54.752Z,81.00
2022-08-26T00:18:51.978Z,81.32
2022-08-26T00:21:49.653Z,80.73
2022-08-26T00:24:47.824Z,79.71
2022-08-26T00:27:45.776Z,79.60
2022-08-26T00:30:42.555Z,80.23
2022-08-26T00:33:43.080Z,80.65
2022-08-26T00:36:41.735Z,80.90
2022-08-26T00:39:40.377Z,80.65
2022-08-26T00:42:38.068Z,80.91
2022-08-26T00:45:45.053Z,80.77
2022-08-26T00:48:43.923Z,81.46
2022-08-26T00:51:49.643Z,81.14
2022-08-26T00:54:56.430Z,81.77
2022-08-26T00:57:53.552Z,82.22
2022-08-26T01:00:50.731Z,81.83
2022-08-26T01:03:49.863Z,82.21
2022-08-26T01:06:48.629Z,82.36
2022-08-26T01:09:46.465Z,83.12
2022-08-26T01:12:46.844Z,82.79
2022-08-26T01:15:46.004Z,82.20
2022-08-26T01:18:44.221Z,81.27
2022-08-26T01:21:48.741Z,80.77
2022-08-26T01:24:45.747Z,81.28
2022-08-26T01:27:44.825Z,82.31
2022-08-26T01:30:46.942Z,82.97
2022-08-26T01:33:56.613Z,83.25
2022-08-26T01:37:02.862Z,83.55
2022-08-26T01:39:59.455Z,83.28
2022-08-26T01:42:56.797Z,84.56
2022-08-26T01:45:57.050Z,84.73
2022-08-26T01:48:55.234Z,84.42
2022-08-26T01:51:54.274Z,84.36
2022-08-26T01:54:52.196Z,84.27
2022-08-26T01:57:52.346Z,84.75
2022-08-26T02:00:53.897Z,85.79
2022-08-26T02:04:19.137Z,85.40
2022-08-26T02:07:18.262Z,85.79
2022-08-26T02:10:16.485Z,86.14
2022-08-26T02:13:16.561Z,86.54
2022-08-26T02:16:16.159Z,86.89
2022-08-26T02:19:35.780Z,86.78
2022-08-26T02:22:32.751Z,86.23
2022-08-26T02:25:46.121Z,86.20
2022-08-26T02:29:04.298Z,87.08
2022-08-26T02:32:02.360Z,87.53
2022-08-26T02:34:59.598Z,87.58
2022-08-26T02:37:57.045Z,86.90
2022-08-26T02:40:54.944Z,86.53
2022-08-26T02:43:51.766Z,86.97
2022-08-26T02:46:49.242Z,86.54
2022-08-26T02:49:47.706Z,86.00
2022-08-26T02:52:45.559Z,85.23
2022-08-26T02:55:42.953Z,85.38
2022-08-26T02:58:40.604Z,86.45
2022-08-26T03:01:38.952Z,85.92
2022-08-26T03:04:35.735Z,81.23
2022-08-26T03:07:32.936Z,81.20
2022-08-26T03:10:32.198Z,82.19
2022-08-26T03:13:29.858Z,81.32
2022-08-26T03:16:27.090Z,83.10
2022-08-26T03:19:31.021Z,83.16
2022-08-26T03:22:28.956Z,84.08
2022-08-26T03:25:26.128Z,83.19
2022-08-26T03:28:24.658Z,81.75
2022-08-26T03:31:24.781Z,81.87
2022-08-26T03:34:22.689Z,81.70
2022-08-26T03:37:20.891Z,85.17
2022-08-26T03:40:20.302Z,83.18
2022-08-26T03:43:18.117Z,84.03
2022-08-26T03:46:16.453Z,85.78
2022-08-26T03:49:13.869Z,83.59
2022-08-26T03:52:13.241Z,82.04
2022-08-26T03:55:11.030Z,81.35
2022-08-26T03:58:07.954Z,81.79
2022-08-26T04:01:04.898Z,82.38
2022-08-26T04:04:02.138Z,82.46
2022-08-26T04:07:00.958Z,85.98
2022-08-26T04:09:58.068Z,87.57
2022-08-26T04:12:55.069Z,87.41
2022-08-26T04:15:52.080Z,84.61
2022-08-26T04:18:51.841Z,85.75
2022-08-26T04:21:51.059Z,85.30
2022-08-26T04:24:49.188Z,89.14
2022-08-26T04:27:46.933Z,88.54
2022-08-26T04:30:46.477Z,89.06
2022-08-26T04:33:44.523Z,91.75
2022-08-26T04:36:44.277Z,91.76
2022-08-26T04:39:42.212Z,91.72
2022-08-26T04:42:42.576Z,91.09
2022-08-26T04:45:40.153Z,90.42
2022-08-26T04:48:37.314Z,88.78
2022-08-26T04:51:35.942Z,87.76
2022-08-26T04:54:33.763Z,91.22
2022-08-26T04:57:31.960Z,91.96
2022-08-26T05:00:29.834Z,90.55
2022-08-26T05:03:30.438Z,89.33
2022-08-26T05:06:28.165Z,87.90
2022-08-26T05:09:25.485Z,88.43
2022-08-26T05:12:23.439Z,92.03
2022-08-26T05:15:20.816Z,87.95
2022-08-26T05:18:21.214Z,85.63
2022-08-26T05:21:24.125Z,83.87
2022-08-26T05:24:20.968Z,81.77
2022-08-26T05:27:17.783Z,82.66
2022-08-26T05:30:14.799Z,84.03
2022-08-26T05:33:12.112Z,83.90
2022-08-26T05:36:10.524Z,85.08
2022-08-26T05:39:10.424Z,85.66
2022-08-26T05:42:08.890Z,87.01
2022-08-26T05:45:07.580Z,86.85
2022-08-26T05:48:08.011Z,86.64
2022-08-26T05:51:07.254Z,86.88
2022-08-26T05:54:05.536Z,86.91
2022-08-26T05:57:02.915Z,87.12
2022-08-26T06:00:00.936Z,87.48
2022-08-26T06:02:58.257Z,87.12
2022-08-26T06:05:56.073Z,87.27
2022-08-26T06:08:52.997Z,87.58
2022-08-26T06:11:49.791Z,88.08
2022-08-26T06:14:49.082Z,89.37
2022-08-26T06:17:46.346Z,90.10
2022-08-26T06:20:57.285Z,91.29
2022-08-26T06:24:17.293Z,91.86
2022-08-26T06:27:15.335Z,93.66
2022-08-26T06:30:13.221Z,95.00
2022-08-26T06:33:11.237Z,94.58
2022-08-26T06:36:08.257Z,94.58
2022-08-26T06:39:07.123Z,96.36
2022-08-26T06:42:06.185Z,97.22
2022-08-26T06:45:04.285Z,98.28
2022-08-26T06:48:02.326Z,100.00
2022-08-26T06:51:05.647Z,100.00
2022-08-26T06:54:03.990Z,100.00
2022-08-26T06:57:01.217Z,100.00
2022-08-26T06:59:58.271Z,100.00
2022-08-26T07:02:55.023Z,100.00
2022-08-26T07:05:52.019Z,100.00
2022-08-26T07:08:52.368Z,100.00
2022-08-26T07:11:51.287Z,100.00
2022-08-26T07:14:49.647Z,100.00
2022-08-26T07:17:47.199Z,100.00
2022-08-26T07:20:44.920Z,100.00
2022-08-26T07:23:42.316Z,100.00
2022-08-26T07:26:38.816Z,100.00
2022-08-26T07:29:40.430Z,100.00
2022-08-26T07:32:37.978Z,100.00
2022-08-26T07:35:35.322Z,100.00
2022-08-26T07:38:33.905Z,100.00
2022-08-26T07:41:31.239Z,100.00
2022-08-26T07:44:29.684Z,100.00
2022-08-26T07:47:26.960Z,100.00
2022-08-26T07:50:50.197Z,100.00
2022-08-26T07:53:42.486Z,100.00
2022-08-26T07:56:39.793Z,100.00
2022-08-26T07:59:40.689Z,100.00
2022-08-26T08:02:38.058Z,100.00
2022-08-26T08:05:36.843Z,100.00
2022-08-26T08:08:40.775Z,100.00
2022-08-26T08:11:38.232Z,100.00
2022-08-26T08:14:37.206Z,100.00
2022-08-26T08:17:35.227Z,100.00
2022-08-26T08:20:33.563Z,100.00
2022-08-26T08:23:31.673Z,100.00
2022-08-26T08:26:28.928Z,100.00
2022-08-26T08:29:26.709Z,100.00
2022-08-26T08:32:24.151Z,100.00
2022-08-26T08:35:22.577Z,100.00
2022-08-26T08:38:20.174Z,100.00
2022-08-26T08:41:35.709Z,100.00
2022-08-26T08:44:32.819Z,99.79
2022-08-26T08:47:39.275Z,99.52
2022-08-26T08:50:43.814Z,100.00
2022-08-26T08:53:43.177Z,99.76
2022-08-26T08:56:42.928Z,98.26
2022-08-26T09:00:12.576Z,98.10
2022-08-26T09:03:16.287Z,97.40
2022-08-26T09:06:20.616Z,97.19
2022-08-26T09:09:23.454Z,97.40
2022-08-26T09:12:29.171Z,97.10
2022-08-26T09:15:34.163Z,96.13
2022-08-26T09:19:04.829Z,96.05
2022-08-26T09:22:05.738Z,96.30
2022-08-26T09:25:11.169Z,96.53
2022-08-26T09:28:08.364Z,97.30
2022-08-26T09:31:13.211Z,95.55
2022-08-26T09:34:21.129Z,94.65
2022-08-26T09:37:18.114Z,94.26
2022-08-26T09:40:20.320Z,95.12
2022-08-26T09:43:22.412Z,93.42
2022-08-26T09:46:26.158Z,93.38
2022-08-26T09:49:41.382Z,92.70
2022-08-26T09:52:38.123Z,92.35
2022-08-26T09:55:39.481Z,92.23
2022-08-26T09:58:37.997Z,92.97
2022-08-26T10:01:41.864Z,91.88
2022-08-26T10:04:39.010Z,91.25
2022-08-26T10:07:47.254Z,91.67
2022-08-26T10:10:45.138Z,90.82
2022-08-26T10:13:48.434Z,90.66
2022-08-26T10:17:00.243Z,90.75
2022-08-26T10:20:09.855Z,90.33
2022-08-26T10:23:24.607Z,89.73
2022-08-26T10:26:40.842Z,89.49
2022-08-26T10:29:46.020Z,90.51
2022-08-26T10:32:53.930Z,88.98
2022-08-26T10:35:53.744Z,89.43
2022-08-26T10:38:51.370Z,88.86
2022-08-26T10:41:50.210Z,88.92
2022-08-26T10:44:47.489Z,88.41
2022-08-26T10:48:17.181Z,88.40
2022-08-26T10:51:22.340Z,87.59
2022-08-26T10:54:47.621Z,87.50
2022-08-26T10:57:59.679Z,87.22
2022-08-26T11:01:29.069Z,87.26
2022-08-26T11:04:43.403Z,88.10
2022-08-26T11:07:56.453Z,86.95
2022-08-26T11:10:58.844Z,86.73
2022-08-26T11:14:01.219Z,85.73
2022-08-26T11:16:58.881Z,84.99
2022-08-26T11:20:01.431Z,84.88
2022-08-26T11:23:12.877Z,83.42
2022-08-26T11:26:11.012Z,84.47
2022-08-26T11:29:13.370Z,83.40
2022-08-26T11:32:27.712Z,84.92
2022-08-26T11:35:34.675Z,82.92
2022-08-26T11:38:35.186Z,82.50
2022-08-26T11:41:32.677Z,81.95
2022-08-26T11:44:40.573Z,82.47
2022-08-26T11:47:38.236Z,82.83
2022-08-26T11:50:35.616Z,82.27
2022-08-26T11:53:35.849Z,81.91
2022-08-26T11:56:33.991Z,81.15
2022-08-26T12:02:39.971Z,81.26
2022-08-26T12:05:42.312Z,80.39
2022-08-26T12:08:42.918Z,79.59
2022-08-26T12:11:41.272Z,79.30
2022-08-26T12:14:41.226Z,78.06
2022-08-26T12:17:39.637Z,79.56
2022-08-26T12:20:48.664Z,78.87
2022-08-26T12:23:46.732Z,78.54
2022-08-26T12:26:44.426Z,77.09
2022-08-26T12:29:41.699Z,77.01
2022-08-26T12:32:57.486Z,76.88
2022-08-26T12:35:56.691Z,77.57
2022-08-26T12:38:58.092Z,76.27
2022-08-26T12:41:59.976Z,76.27
2022-08-26T12:45:01.882Z,78.08
2022-08-26T12:48:21.517Z,79.12
2022-08-26T12:51:28.165Z,79.25
2022-08-26T12:54:45.054Z,79.29
2022-08-26T12:57:42.705Z,78.89
2022-08-26T13:00:42.030Z,79.69
2022-08-26T13:03:45.424Z,79.27
2022-08-26T13:06:42.665Z,79.11
2022-08-26T13:09:40.352Z,80.36
2022-08-26T13:12:38.350Z,81.29
2022-08-26T13:15:35.431Z,80.39
2022-08-26T13:18:33.604Z,81.09
2022-08-26T13:21:37.769Z,81.03
2022-08-26T13:24:37.154Z,81.08
2022-08-26T13:27:34.287Z,80.85
2022-08-26T13:30:31.365Z,79.67
2022-08-26T13:33:28.763Z,79.40
2022-08-26T13:36:27.025Z,79.08
2022-08-26T13:39:24.581Z,78.11
2022-08-26T13:42:22.395Z,79.58
2022-08-26T13:45:19.511Z,79.51
2022-08-26T13:48:20.282Z,79.93
2022-08-26T13:51:20.384Z,79.73
2022-08-26T13:54:18.005Z,79.66
2022-08-26T13:57:15.513Z,79.20
2022-08-26T14:00:13.096Z,77.92
2022-08-26T14:03:13.425Z,78.88
2022-08-26T14:06:10.646Z,78.50
2022-08-26T14:09:07.789Z,78.43
2022-08-26T14:12:08.582Z,78.79
2022-08-26T14:15:06.888Z,79.53
2022-08-26T14:18:05.443Z,78.61
2022-08-26T14:21:06.060Z,79.44
2022-08-26T14:24:04.540Z,78.61
2022-08-26T14:27:01.338Z,78.35
2022-08-26T14:29:59.586Z,77.83
2022-08-26T14:32:57.427Z,76.56
2022-08-26T14:36:14.416Z,75.94
2022-08-26T14:39:12.234Z,76.32
2022-08-26T14:42:10.286Z,77.06
2022-08-26T14:45:09.515Z,78.13
2022-08-26T14:48:07.700Z,78.70
2022-08-26T14:51:05.743Z,78.32
2022-08-26T14:54:14.853Z,78.53
2022-08-26T14:57:13.548Z,78.42
2022-08-26T15:00:12.276Z,77.88
2022-08-26T15:03:09.762Z,77.85
2022-08-26T15:06:07.375Z,77.39
2022-08-26T15:09:04.559Z,77.44
2022-08-26T15:12:01.520Z,77.21
2022-08-26T15:14:58.592Z,77.99
2022-08-26T15:17:56.167Z,78.19
2022-08-26T15:20:53.427Z,78.57
2022-08-26T15:23:50.687Z,78.01
2022-08-26T15:26:48.017Z,78.85
2022-08-26T15:29:45.618Z,77.68
2022-08-26T15:32:42.420Z,77.86
2022-08-26T15:35:40.280Z,76.00
2022-08-26T15:38:42.279Z,78.29
2022-08-26T15:41:39.489Z,76.10
2022-08-26T15:44:37.075Z,76.13
2022-08-26T15:47:38.111Z,76.11
2022-08-26T15:51:00.332Z,77.58
2022-08-26T15:53:57.894Z,78.10
2022-08-26T15:56:55.852Z,78.17
2022-08-26T15:59:53.588Z,77.57
2022-08-26T16:02:50.581Z,77.79
2022-08-26T16:05:47.494Z,78.09
2022-08-26T16:08:45.222Z,77.32
2022-08-26T16:11:42.412Z,76.82
2022-08-26T16:14:39.605Z,77.28
2022-08-26T16:17:36.822Z,77.34
2022-08-26T16:20:36.582Z,76.79
2022-08-26T16:23:35.110Z,76.87
2022-08-26T16:26:34.144Z,77.54
2022-08-26T16:29:32.663Z,77.75
2022-08-26T16:32:31.277Z,78.09
2022-08-26T16:35:28.780Z,78.30
2022-08-26T16:38:25.674Z,77.95
2022-08-26T16:41:23.640Z,77.72
2022-08-26T16:44:22.044Z,78.13
2022-08-26T16:47:20.722Z,78.02
2022-08-26T16:50:18.164Z,78.45
2022-08-26T16:53:15.660Z,77.90
2022-08-26T16:56:14.026Z,78.26
2022-08-26T16:59:11.874Z,78.38
2022-08-26T17:02:08.767Z,78.76
2022-08-26T17:05:06.372Z,79.29
2022-08-26T17:08:04.183Z,78.76
2022-08-26T17:11:04.899Z,81.95
2022-08-26T17:14:02.988Z,83.32
2022-08-26T17:17:00.812Z,83.17
2022-08-26T17:19:59.316Z,83.08
2022-08-26T17:22:56.786Z,84.10
2022-08-26T17:25:53.515Z,83.47
2022-08-26T17:28:50.963Z,84.90
2022-08-26T17:31:48.727Z,84.97
2022-08-26T17:34:45.672Z,84.11
2022-08-26T17:37:42.764Z,84.55
2022-08-26T17:40:40.009Z,83.58
2022-08-26T17:43:38.440Z,82.47
2022-08-26T17:46:38.486Z,84.04
2022-08-26T17:49:35.622Z,83.76
2022-08-26T17:52:32.883Z,84.23
2022-08-26T17:55:29.640Z,83.20
2022-08-26T17:58:26.655Z,83.63
2022-08-26T18:01:27.430Z,83.52
2022-08-26T18:04:24.739Z,84.21
2022-08-26T18:07:21.796Z,84.52
2022-08-26T18:10:20.044Z,84.55
2022-08-26T18:13:17.511Z,84.88
2022-08-26T18:16:15.155Z,84.02
2022-08-26T18:19:12.877Z,84.54
2022-08-26T18:22:10.808Z,85.42
2022-08-26T18:25:12.712Z,84.06
2022-08-26T18:28:09.646Z,83.42
2022-08-26T18:31:07.822Z,83.08
2022-08-26T18:34:05.883Z,84.99
2022-08-26T18:37:02.928Z,84.98
2022-08-26T18:40:00.506Z,86.54
2022-08-26T18:42:57.648Z,86.19
2022-08-26T18:46:05.282Z,86.09
2022-08-26T18:49:02.825Z,85.93
2022-08-26T18:51:59.864Z,85.39
2022-08-26T18:54:56.868Z,86.84
2022-08-26T18:57:54.107Z,87.49
2022-08-26T19:00:52.105Z,87.55
2022-08-26T19:03:51.408Z,86.26
2022-08-26T19:06:50.785Z,85.79
2022-08-26T19:09:47.489Z,87.26
2022-08-26T19:12:51.944Z,87.69
2022-08-26T19:15:49.551Z,88.31
2022-08-26T19:18:47.132Z,87.84
2022-08-26T19:21:44.872Z,88.61
2022-08-26T19:24:41.687Z,88.32
2022-08-26T19:27:38.587Z,88.68
2022-08-26T19:30:42.828Z,88.60
2022-08-26T19:33:40.301Z,87.87
2022-08-26T19:36:38.493Z,88.38
2022-08-26T19:39:41.288Z,87.43
2022-08-26T19:42:39.112Z,88.00
2022-08-26T19:45:36.926Z,88.53
2022-08-26T19:48:33.833Z,88.21
2022-08-26T19:51:32.654Z,88.69
2022-08-26T19:54:30.085Z,87.92
2022-08-26T19:57:27.909Z,87.82
2022-08-26T20:00:26.463Z,87.57
2022-08-26T20:03:23.879Z,88.53
2022-08-26T20:06:21.045Z,87.85
2022-08-26T20:09:18.688Z,89.15
2022-08-26T20:12:17.426Z,89.24
2022-08-26T20:15:15.032Z,89.21
2022-08-26T20:18:31.367Z,88.91
2022-08-26T20:21:31.665Z,89.99
2022-08-26T20:24:30.835Z,89.79
2022-08-26T20:27:38.270Z,89.26
2022-08-26T20:30:35.571Z,89.73
2022-08-26T20:33:46.053Z,90.65
2022-08-26T20:36:44.254Z,91.74
2022-08-26T20:39:41.872Z,91.50
2022-08-26T20:42:38.952Z,91.57
2022-08-26T20:45:35.648Z,91.74
2022-08-26T20:48:32.770Z,91.59
2022-08-26T20:51:31.243Z,91.62
2022-08-26T20:54:28.768Z,92.44
2022-08-26T20:57:25.603Z,90.15
2022-08-26T21:00:24.611Z,89.59
2022-08-26T21:03:25.294Z,89.08
2022-08-26T21:06:23.270Z,89.47
2022-08-26T21:09:24.795Z,89.07
2022-08-26T21:12:22.275Z,90.30
2022-08-26T21:15:19.884Z,90.81
2022-08-26T21:18:16.980Z,89.59
2022-08-26T21:21:14.158Z,89.29
2022-08-26T21:24:12.791Z,89.15
2022-08-26T21:27:09.804Z,89.38
2022-08-26T21:30:07.311Z,89.01
2022-08-26T21:33:04.904Z,89.06
2022-08-26T21:36:01.931Z,89.37
2022-08-26T21:38:59.243Z,89.00
2022-08-26T21:41:58.040Z,88.58
2022-08-26T21:44:57.636Z,90.60
2022-08-26T21:47:54.922Z,89.69
2022-08-26T21:50:51.913Z,88.78
2022-08-26T21:53:48.661Z,88.16
2022-08-26T21:56:46.893Z,86.72
2022-08-26T21:59:44.188Z,86.32
2022-08-26T22:02:41.872Z,86.48
2022-08-26T22:05:46.398Z,86.81
2022-08-26T22:08:44.190Z,85.90
2022-08-26T22:11:41.946Z,86.17
2022-08-26T22:14:39.766Z,86.24
2022-08-26T22:17:37.993Z,86.50
2022-08-26T22:20:35.221Z,86.24
2022-08-26T22:23:33.226Z,85.83
2022-08-26T22:26:31.755Z,86.73
2022-08-26T22:29:28.655Z,85.85
2022-08-26T22:32:25.794Z,85.93
2022-08-26T22:35:28.403Z,86.73
2022-08-26T22:38:26.907Z,86.34
2022-08-26T22:41:24.046Z,86.76
2022-08-26T22:44:22.347Z,85.26
2022-08-26T22:47:19.989Z,84.72
2022-08-26T22:50:17.204Z,85.25
2022-08-26T22:53:16.071Z,84.51
2022-08-26T22:56:14.222Z,85.32
2022-08-26T22:59:12.208Z,84.87
2022-08-26T23:02:12.000Z,85.68
2022-08-26T23:05:09.960Z,85.40
2022-08-26T23:08:08.736Z,86.74
2022-08-26T23:11:10.025Z,85.50
2022-08-26T23:14:06.855Z,85.22
2022-08-26T23:17:03.958Z,85.13
2022-08-26T23:20:02.101Z,84.73
2022-08-26T23:23:00.096Z,84.44
2022-08-26T23:25:57.208Z,85.25
2022-08-26T23:28:55.323Z,85.26
2022-08-26T23:31:53.752Z,85.25
2022-08-26T23:34:58.855Z,84.91
2022-08-26T23:37:57.828Z,84.81
2022-08-26T23:40:57.065Z,84.83
2022-08-26T23:43:54.197Z,83.77
2022-08-26T23:46:51.791Z,83.93
2022-08-26T23:49:49.218Z,84.97
2022-08-26T23:53:05.741Z,84.48
2022-08-26T23:56:03.323Z,82.45
2022-08-26T23:59:00.952Z,82.94
